Time;durP1;ratioP1;P1;durP2;ratioP2;P2;SDS_P1;SDS_P2;PMS_P1;PMS_P2;Temp;Humidity;BMP_temperature;BMP_pressure;BME280_temperature;BME280_humidity;BME280_pressure;Samples;Min_cycle;Max_cycle;Signal;HPM_P1;HPM_P2
2020/12/19 00:02:20;;;;;;;2.85;1.50;;;;;;;-6.35;93.16;100653.88;4980578;28;20050;-68
2020/12/19 00:05:07;;;;;;;2.60;1.40;;;;;;;-6.33;93.09;100661.53;4980917;28;20069;-67
2020/12/19 00:07:53;;;;;;;2.75;1.45;;;;;;;-6.29;93.07;100670.88;4984847;28;20054;-69
2020/12/19 00:10:39;;;;;;;3.00;1.45;;;;;;;-6.28;93.15;100662.38;5009466;28;20143;-70
2020/12/19 00:13:26;;;;;;;2.88;1.23;;;;;;;-6.27;93.14;100653.91;5006131;28;20061;-67
2020/12/19 00:16:16;;;;;;;3.92;1.60;;;;;;;-6.29;93.21;100653.91;5009936;28;20113;-67
2020/12/19 00:19:05;;;;;;;3.13;1.30;;;;;;;-6.30;93.11;100654.75;4980493;28;20082;-69
2020/12/19 00:21:52;;;;;;;2.75;1.33;;;;;;;-6.30;93.10;100648.81;4999606;28;20108;-69
2020/12/19 00:24:39;;;;;;;2.72;1.25;;;;;;;-6.29;93.08;100647.97;4997831;28;20046;-67
2020/12/19 00:27:26;;;;;;;3.22;1.42;;;;;;;-6.27;93.29;100652.19;4999684;28;20128;-69
2020/12/19 00:30:13;;;;;;;3.60;1.58;;;;;;;-6.26;93.07;100642.91;5004952;28;20050;-67
2020/12/19 00:32:59;;;;;;;2.47;1.27;;;;;;;-6.26;93.09;100636.09;4980358;28;20055;-69
2020/12/19 00:35:45;;;;;;;3.45;1.52;;;;;;;-6.26;93.04;100635.25;4983232;28;20771;-67
2020/12/19 00:38:32;;;;;;;2.75;1.38;;;;;;;-6.28;92.85;100635.22;4984379;28;20524;-66
2020/12/19 00:41:21;;;;;;;2.53;1.17;;;;;;;-6.28;92.86;100647.97;4980152;28;20138;-68
2020/12/19 00:44:07;;;;;;;3.65;1.63;;;;;;;-6.28;92.76;100642.88;4980044;28;20483;-68
2020/12/19 00:46:54;;;;;;;3.80;1.67;;;;;;;-6.28;92.96;100654.75;4982846;28;20471;-67
2020/12/19 00:49:40;;;;;;;2.60;1.27;;;;;;;-6.26;92.86;100653.91;4980117;28;20366;-68
2020/12/19 00:52:27;;;;;;;4.05;1.05;;;;;;;-6.21;92.90;100656.47;4966501;28;20116;-67
2020/12/19 00:55:13;;;;;;;2.00;1.15;;;;;;;-6.24;92.90;100664.94;4979899;28;20042;-69
2020/12/19 00:58:01;;;;;;;4.05;1.42;;;;;;;-6.24;92.70;100648.81;4978738;28;20077;-70
2020/12/19 01:00:47;;;;;;;2.40;1.30;;;;;;;-6.24;92.82;100642.03;4976774;28;20082;-68
2020/12/19 01:03:34;;;;;;;2.60;1.50;;;;;;;-6.25;92.71;100634.41;4982397;28;20137;-67
2020/12/19 01:06:22;;;;;;;2.35;1.10;;;;;;;-6.24;92.80;100625.91;4988835;28;20133;-67
2020/12/19 01:09:08;;;;;;;3.28;1.38;;;;;;;-6.23;92.93;100617.44;4986902;28;20074;-68
2020/12/19 01:11:56;;;;;;;2.75;1.30;;;;;;;-6.27;93.11;100615.72;4995937;28;20054;-70
2020/12/19 01:14:44;;;;;;;2.42;1.20;;;;;;;-6.26;92.75;100612.34;4996997;28;20050;-67
2020/12/19 01:17:30;;;;;;;2.63;1.10;;;;;;;-6.26;93.02;100614.91;4994650;28;20046;-68
2020/12/19 01:20:17;;;;;;;2.33;1.20;;;;;;;-6.25;93.08;100614.91;4998192;28;20145;-67
2020/12/19 01:23:03;;;;;;;2.88;1.35;;;;;;;-6.27;93.24;100606.38;4998699;28;20444;-69
2020/12/19 01:25:50;;;;;;;2.63;1.70;;;;;;;-6.30;93.05;100595.38;4998174;28;20444;-71
2020/12/19 01:28:37;;;;;;;3.42;1.67;;;;;;;-6.33;93.33;100583.47;4997479;28;20144;-68
2020/12/19 01:31:24;;;;;;;2.88;1.33;;;;;;;-6.33;93.45;100578.41;4998734;28;20125;-69
2020/12/19 01:34:10;;;;;;;2.45;1.38;;;;;;;-6.36;93.39;100577.53;4978841;28;20047;-68
2020/12/19 01:36:57;;;;;;;2.55;1.17;;;;;;;-6.35;93.33;100575.00;4980838;28;20482;-69
2020/12/19 01:39:43;;;;;;;2.22;1.30;;;;;;;-6.35;93.41;100571.63;4997364;28;20081;-68
2020/12/19 01:42:29;;;;;;;3.28;1.42;;;;;;;-6.33;93.30;100562.28;4998605;28;20092;-69
2020/12/19 01:45:16;;;;;;;3.80;1.50;;;;;;;-6.31;93.38;100574.19;4998121;28;20108;-67
2020/12/19 01:48:19;;;;;;;3.33;1.25;;;;;;;-6.26;93.62;100586.91;4994994;28;20117;-68
2020/12/19 01:51:06;;;;;;;2.50;1.00;;;;;;;-6.27;93.35;100600.44;4991806;28;20563;-68
2020/12/19 01:53:53;;;;;;;3.05;1.75;;;;;;;-6.21;93.37;100614.06;5005943;28;20089;-67
2020/12/19 01:56:47;;;;;;;3.30;1.48;;;;;;;-6.23;93.30;100609.78;5002936;28;20050;-70
2020/12/19 01:59:34;;;;;;;2.38;1.20;;;;;;;-6.20;93.29;100599.63;4972664;28;20051;-69
2020/12/19 02:02:23;;;;;;;3.70;1.65;;;;;;;-6.20;93.23;100599.63;4972754;28;20584;-69
2020/12/19 02:05:10;;;;;;;2.50;1.38;;;;;;;-6.16;93.30;100597.94;4972607;28;20057;-70
2020/12/19 02:07:57;;;;;;;2.20;1.05;;;;;;;-6.14;93.24;100598.78;4972430;28;20095;-68
2020/12/19 02:10:43;;;;;;;2.33;1.33;;;;;;;-6.13;93.21;100597.94;4972501;28;20054;-68
2020/12/19 02:13:29;;;;;;;2.65;1.30;;;;;;;-6.13;93.27;100595.41;4972516;28;20055;-68
2020/12/19 02:16:17;;;;;;;2.63;1.50;;;;;;;-6.11;93.31;100597.09;4972205;28;20093;-67
2020/12/19 02:19:14;;;;;;;2.70;1.65;;;;;;;-6.09;93.15;100579.28;4984912;28;20118;-70
2020/12/19 02:22:02;;;;;;;3.10;1.60;;;;;;;-6.12;93.26;100577.59;4983797;28;20047;-66
2020/12/19 02:24:49;;;;;;;3.70;1.50;;;;;;;-6.13;93.66;100565.69;4980275;28;20102;-68
2020/12/19 02:27:36;;;;;;;3.58;2.00;;;;;;;-6.12;93.52;100553.81;4988507;28;20059;-69
2020/12/19 02:30:22;;;;;;;2.90;1.42;;;;;;;-6.14;93.56;100553.81;4980101;28;20090;-70
2020/12/19 02:33:09;;;;;;;4.28;1.67;;;;;;;-6.13;93.43;100547.88;4975159;28;20046;-68
2020/12/19 02:35:56;;;;;;;3.78;1.95;;;;;;;-6.11;93.43;100545.34;4990573;28;20086;-68
2020/12/19 02:38:42;;;;;;;4.75;1.73;;;;;;;-6.12;93.54;100541.97;4974312;28;20086;-68
2020/12/19 02:41:29;;;;;;;2.97;1.48;;;;;;;-6.09;93.18;100553.81;4987805;28;20046;-69
2020/12/19 02:44:20;;;;;;;2.88;1.42;;;;;;;-6.04;93.35;100559.75;4972621;28;20553;-67
2020/12/19 02:47:06;;;;;;;3.90;1.70;;;;;;;-6.02;93.18;100563.19;4978134;28;20047;-69
2020/12/19 02:49:53;;;;;;;3.00;1.63;;;;;;;-6.00;93.34;100564.88;4988179;28;20046;-70
2020/12/19 02:52:39;;;;;;;4.45;1.90;;;;;;;-5.98;93.37;100560.63;4991340;28;20093;-67
2020/12/19 02:55:26;;;;;;;2.50;1.30;;;;;;;-5.97;93.22;100561.47;4987309;28;20133;-69
2020/12/19 02:58:12;;;;;;;2.78;1.50;;;;;;;-5.97;93.08;100561.47;5004803;28;20540;-67
2020/12/19 03:00:59;;;;;;;2.60;1.45;;;;;;;-5.93;92.86;100565.72;4991407;28;20108;-68
2020/12/19 03:03:46;;;;;;;4.40;1.70;;;;;;;-5.90;93.01;100562.28;5005231;28;20117;-69
2020/12/19 03:06:45;;;;;;;4.18;1.88;;;;;;;-5.91;93.24;100560.63;4974249;28;20845;-69
2020/12/19 03:09:32;;;;;;;3.08;1.70;;;;;;;-5.91;92.79;100564.00;5003416;28;20046;-66
2020/12/19 03:12:18;;;;;;;4.30;1.60;;;;;;;-5.90;92.97;100567.38;4980629;28;20105;-67
2020/12/19 03:15:05;;;;;;;3.13;1.60;;;;;;;-5.93;92.88;100553.84;4987736;28;20053;-69
2020/12/19 03:17:51;;;;;;;5.68;1.90;;;;;;;-5.96;93.48;100541.09;4986629;28;20051;-69
2020/12/19 03:20:38;;;;;;;3.75;2.13;;;;;;;-5.96;93.45;100543.66;4991066;28;20579;-71
2020/12/19 03:23:24;;;;;;;3.58;1.70;;;;;;;-5.95;93.54;100542.78;4991320;28;20086;-66
2020/12/19 03:26:11;;;;;;;3.78;1.77;;;;;;;-5.94;93.55;100546.19;4984919;28;20113;-70
2020/12/19 03:28:57;;;;;;;3.55;1.98;;;;;;;-5.93;93.52;100543.66;4985130;28;20498;-67
2020/12/19 03:31:44;;;;;;;4.15;1.75;;;;;;;-5.92;93.64;100547.06;4989135;28;20105;-70
2020/12/19 03:34:30;;;;;;;3.42;1.70;;;;;;;-5.89;93.53;100546.16;4991159;28;20520;-69
2020/12/19 03:37:16;;;;;;;3.35;1.88;;;;;;;-5.88;93.49;100543.63;4985878;28;20074;-69
2020/12/19 03:40:04;;;;;;;4.10;1.98;;;;;;;-5.87;93.48;100542.78;4971176;28;20059;-67
2020/12/19 03:42:50;;;;;;;3.53;1.83;;;;;;;-5.84;93.49;100552.09;4989431;28;20046;-67
2020/12/19 03:45:36;;;;;;;3.42;1.70;;;;;;;-5.81;93.65;100547.00;4990639;28;20113;-67
2020/12/19 03:48:23;;;;;;;3.45;1.50;;;;;;;-5.82;93.52;100547.88;4986043;28;20094;-69
2020/12/19 03:51:10;;;;;;;3.60;1.63;;;;;;;-5.79;93.86;100548.72;4986365;28;20406;-69
2020/12/19 03:53:56;;;;;;;3.85;1.67;;;;;;;-5.78;93.43;100539.38;4986984;28;20117;-70
2020/12/19 03:56:43;;;;;;;4.28;2.00;;;;;;;-5.79;93.35;100530.91;4990252;28;20054;-71
2020/12/19 03:59:29;;;;;;;3.65;1.83;;;;;;;-5.82;93.66;100528.34;5003693;28;20054;-69
2020/12/19 04:02:16;;;;;;;3.22;1.88;;;;;;;-5.78;93.77;100535.13;4994235;28;20046;-69
2020/12/19 04:05:07;;;;;;;3.15;1.67;;;;;;;-5.75;93.63;100539.34;4990046;28;20050;-70
2020/12/19 04:07:53;;;;;;;2.88;1.40;;;;;;;-5.71;93.75;100546.16;4979265;28;20101;-67
2020/12/19 04:10:40;;;;;;;3.45;1.70;;;;;;;-5.70;93.14;100535.97;4993958;28;20401;-67
2020/12/19 04:13:26;;;;;;;4.07;1.88;;;;;;;-5.71;93.70;100543.59;5005641;28;20059;-70
2020/12/19 04:16:13;;;;;;;4.00;1.83;;;;;;;-5.67;93.80;100545.28;5003675;28;20050;-69
2020/12/19 04:19:48;;;;;;;4.32;2.10;;;;;;;-5.72;94.06;100531.72;5004108;22;20152;-67
2020/12/19 04:22:36;;;;;;;5.07;2.20;;;;;;;-5.75;93.92;100524.91;4970991;28;20054;-68
2020/12/19 04:25:23;;;;;;;4.15;2.30;;;;;;;-5.75;94.81;100524.06;4973244;28;20493;-67
2020/12/19 04:28:09;;;;;;;5.32;2.42;;;;;;;-5.74;93.98;100515.59;4972485;28;20154;-70
2020/12/19 04:30:56;;;;;;;6.38;2.72;;;;;;;-5.72;94.74;100512.19;4973562;28;20402;-70
2020/12/19 04:33:43;;;;;;;4.38;2.45;;;;;;;-5.71;94.59;100500.31;4974337;28;20043;-67
2020/12/19 04:36:30;;;;;;;5.22;2.20;;;;;;;-5.72;95.07;100496.91;4973847;28;20055;-68
2020/12/19 04:39:16;;;;;;;5.60;2.67;;;;;;;-5.74;94.97;100492.69;4973031;28;20039;-67
2020/12/19 04:42:03;;;;;;;6.75;2.53;;;;;;;-5.73;95.05;100484.19;4973767;28;20406;-69
2020/12/19 04:44:50;;;;;;;3.58;1.73;;;;;;;-5.69;94.83;100489.28;4973234;28;20509;-68
2020/12/19 04:47:37;;;;;;;5.38;2.28;;;;;;;-5.66;95.16;100489.25;4973697;28;20058;-70
2020/12/19 04:50:26;;;;;;;4.95;2.35;;;;;;;-5.66;94.97;100491.78;4973776;28;20046;-69
2020/12/19 04:53:17;;;;;;;4.60;2.60;;;;;;;-5.64;95.36;100489.25;4974258;28;20047;-68
2020/12/19 04:56:06;;;;;;;6.90;2.75;;;;;;;-5.68;95.61;100483.31;4973629;28;20054;-71
2020/12/19 04:59:01;;;;;;;6.28;2.85;;;;;;;-5.63;95.79;100478.22;4972789;28;20418;-67
2020/12/19 05:01:48;;;;;;;5.90;2.97;;;;;;;-5.63;96.04;100470.56;4972963;28;20061;-68
2020/12/19 05:04:39;;;;;;;6.18;2.78;;;;;;;-5.60;95.81;100478.22;4972190;28;20043;-68
2020/12/19 05:07:26;;;;;;;5.85;3.00;;;;;;;-5.57;95.95;100472.25;4973579;28;20545;-68
2020/12/19 05:10:15;;;;;;;8.73;3.15;;;;;;;-5.59;96.03;100472.25;4973805;28;20057;-69
2020/12/19 05:13:02;;;;;;;7.07;3.30;;;;;;;-5.55;96.31;100471.41;4973339;28;20057;-68
2020/12/19 05:15:49;;;;;;;7.18;2.92;;;;;;;-5.53;96.22;100471.41;4960886;28;20110;-69
2020/12/19 05:18:38;;;;;;;6.35;3.20;;;;;;;-5.52;95.94;100470.53;4972985;28;20051;-70
2020/12/19 05:21:25;;;;;;;5.72;2.83;;;;;;;-5.52;95.98;100462.91;4973381;28;20058;-67
2020/12/19 05:24:14;;;;;;;6.22;2.90;;;;;;;-5.47;96.25;100461.19;4973172;28;20046;-68
2020/12/19 05:27:05;;;;;;;5.38;2.53;;;;;;;-5.50;96.62;100461.22;4973072;28;20082;-68
2020/12/19 05:29:56;;;;;;;5.72;2.63;;;;;;;-5.47;96.26;100464.56;4972898;28;20094;-66
2020/12/19 05:33:01;;;;;;;6.03;3.15;;;;;;;-5.41;96.13;100467.13;4973489;28;20054;-67
2020/12/19 05:35:48;;;;;;;5.35;2.72;;;;;;;-5.38;96.47;100466.25;4972960;28;20054;-67
2020/12/19 05:38:38;;;;;;;4.72;2.45;;;;;;;-5.37;96.03;100462.00;4973151;28;20766;-69
2020/12/19 05:41:25;;;;;;;6.43;2.70;;;;;;;-5.36;96.25;100464.56;4972828;28;20533;-67
2020/12/19 05:44:23;;;;;;;5.07;2.50;;;;;;;-5.34;95.91;100459.44;4972613;28;20055;-69
2020/12/19 05:47:09;;;;;;;5.85;2.90;;;;;;;-5.31;95.59;100467.94;4973851;28;20046;-67
2020/12/19 05:49:57;;;;;;;6.28;2.42;;;;;;;-5.25;95.94;100478.09;4973695;28;20109;-70
2020/12/19 05:52:43;;;;;;;8.23;2.72;;;;;;;-5.23;96.01;100471.28;4973849;28;20042;-69
2020/12/19 05:55:31;;;;;;;6.05;2.50;;;;;;;-5.22;96.19;100480.66;4972267;28;20050;-69
2020/12/19 05:58:18;;;;;;;6.10;2.33;;;;;;;-5.22;96.22;100473.00;4971804;28;20069;-68
2020/12/19 06:01:07;;;;;;;5.50;2.78;;;;;;;-5.20;96.35;100467.88;4973043;28;20413;-67
2020/12/19 06:03:55;;;;;;;6.05;2.85;;;;;;;-5.18;96.27;100467.00;4973708;28;20047;-70
2020/12/19 06:06:44;;;;;;;5.80;2.72;;;;;;;-5.16;96.70;100469.56;4972589;28;20047;-70
2020/12/19 06:09:31;;;;;;;6.75;3.22;;;;;;;-5.16;96.57;100472.13;4971966;28;20522;-68
2020/12/19 06:12:29;;;;;;;7.68;2.60;;;;;;;-5.11;96.29;100474.66;4971561;28;20406;-69
2020/12/19 06:15:47;;;;;;;5.18;2.90;;;;;;;-5.08;96.56;100477.16;4971803;28;20413;-70
2020/12/19 06:19:00;;;;;;;5.40;2.67;;;;;;;-5.06;96.28;100490.78;4972473;28;20387;-69
2020/12/19 06:21:54;;;;;;;6.90;3.08;;;;;;;-5.04;95.98;100492.44;4971674;28;20145;-70
2020/12/19 06:24:46;;;;;;;6.68;3.22;;;;;;;-5.02;96.25;100500.09;4972190;28;20051;-67
2020/12/19 06:27:33;;;;;;;7.93;3.47;;;;;;;-5.03;95.99;100490.72;4972912;28;20520;-68
2020/12/19 06:30:30;;;;;;;7.40;3.60;;;;;;;-5.03;96.32;100485.63;4972745;28;20051;-67
2020/12/19 06:33:17;;;;;;;7.20;3.28;;;;;;;-5.01;96.31;100489.03;4971921;28;20054;-70
2020/12/19 06:36:16;;;;;;;5.93;2.88;;;;;;;-4.98;96.58;100489.88;4971980;28;20043;-68
2020/12/19 06:39:06;;;;;;;6.40;3.10;;;;;;;-4.95;95.97;100489.00;4971449;28;20051;-70
2020/12/19 06:41:56;;;;;;;5.07;2.70;;;;;;;-4.90;96.11;100497.47;4972724;28;20058;-69
2020/12/19 06:44:42;;;;;;;6.32;2.50;;;;;;;-4.91;96.05;100496.63;4971608;28;20134;-70
2020/12/19 06:47:30;;;;;;;7.63;2.50;;;;;;;-4.86;96.03;100505.97;4973118;28;20129;-67
2020/12/19 06:50:18;;;;;;;7.20;3.35;;;;;;;-4.85;96.11;100502.56;4971835;28;20047;-69
2020/12/19 06:53:15;;;;;;;5.40;2.58;;;;;;;-4.82;95.99;100505.09;4972559;28;20038;-70
2020/12/19 06:56:25;;;;;;;6.40;2.83;;;;;;;-4.81;96.09;100505.09;4970922;28;20518;-70
2020/12/19 06:59:22;;;;;;;5.22;2.88;;;;;;;-4.85;96.84;100502.56;4972546;28;20055;-68
2020/12/19 07:02:27;;;;;;;7.47;3.10;;;;;;;-4.82;96.77;100507.66;4971242;28;20091;-69
2020/12/19 07:05:22;;;;;;;8.32;2.83;;;;;;;-4.80;96.93;100499.13;4971552;28;20058;-67
2020/12/19 07:08:20;;;;;;;6.30;2.95;;;;;;;-4.80;96.90;100498.28;4970881;28;20735;-66
2020/12/19 07:11:34;;;;;;;4.47;2.38;;;;;;;-4.76;96.84;100497.41;4970210;28;20046;-70
2020/12/19 07:14:21;;;;;;;7.00;2.97;;;;;;;-4.75;96.39;100502.50;4969499;28;20117;-70
2020/12/19 07:17:18;;;;;;;5.78;3.20;;;;;;;-4.69;96.61;100496.53;4972554;28;20061;-71
2020/12/19 07:20:05;;;;;;;6.95;3.08;;;;;;;-4.70;96.74;100507.56;4972467;28;20043;-70
2020/12/19 07:22:52;;;;;;;5.47;3.00;;;;;;;-4.69;96.49;100496.53;4973649;28;20498;-68
2020/12/19 07:25:39;;;;;;;7.95;3.47;;;;;;;-4.67;96.89;100495.66;4975118;28;20043;-71
2020/12/19 07:28:26;;;;;;;7.03;3.35;;;;;;;-4.67;96.54;100487.16;4975208;28;20085;-69
2020/12/19 07:31:16;;;;;;;8.27;3.05;;;;;;;-4.66;96.88;100489.69;4976040;28;20050;-70
2020/12/19 07:34:02;;;;;;;7.13;3.17;;;;;;;-4.66;96.94;100482.03;4974681;28;20514;-69
2020/12/19 07:36:51;;;;;;;5.20;2.72;;;;;;;-4.63;97.20;100491.38;4974778;28;20510;-68
2020/12/19 07:39:38;;;;;;;6.10;2.92;;;;;;;-4.59;97.31;100492.22;4975177;28;20047;-69
2020/12/19 07:42:24;;;;;;;6.40;3.35;;;;;;;-4.55;96.73;100482.00;4974883;28;20058;-70
2020/12/19 07:45:15;;;;;;;6.15;3.28;;;;;;;-4.55;96.74;100476.03;4974997;28;20062;-66
2020/12/19 07:48:03;;;;;;;5.93;3.22;;;;;;;-4.56;96.54;100466.66;4959355;28;20051;-69
2020/12/19 07:50:50;;;;;;;5.85;3.10;;;;;;;-4.51;96.53;100475.13;4975530;28;20138;-69
2020/12/19 07:53:43;;;;;;;8.13;3.20;;;;;;;-4.50;96.76;100487.91;4975697;28;20051;-69
2020/12/19 07:56:30;;;;;;;6.22;3.25;;;;;;;-4.47;96.52;100492.13;4974954;28;20198;-66
2020/12/19 07:59:17;;;;;;;7.63;3.53;;;;;;;-4.46;96.65;100497.25;4974952;28;20047;-68
2020/12/19 08:02:04;;;;;;;5.95;3.17;;;;;;;-4.45;97.01;100492.97;4975442;28;20043;-66
2020/12/19 08:04:56;;;;;;;5.75;3.15;;;;;;;-4.40;96.87;100497.19;4975323;28;20053;-67
2020/12/19 08:07:43;;;;;;;5.80;3.05;;;;;;;-4.38;96.90;100500.56;4977469;28;20074;-69
2020/12/19 08:10:30;;;;;;;4.78;2.65;;;;;;;-4.35;96.50;100504.81;4974173;28;20066;-69
2020/12/19 08:13:17;;;;;;;5.82;3.10;;;;;;;-4.33;96.62;100508.19;4974975;28;20058;-67
2020/12/19 08:16:04;;;;;;;4.22;2.40;;;;;;;-4.29;96.15;100507.31;4974346;28;20050;-70
2020/12/19 08:18:51;;;;;;;5.22;3.03;;;;;;;-4.27;96.09;100499.63;4974678;28;20062;-68
2020/12/19 08:21:38;;;;;;;8.02;3.15;;;;;;;-4.26;95.84;100501.34;4974852;28;20061;-66
2020/12/19 08:24:26;;;;;;;5.95;2.90;;;;;;;-4.29;96.73;100492.00;4974288;28;20050;-69
2020/12/19 08:27:40;;;;;;;6.38;3.10;;;;;;;-4.24;96.04;100495.34;4972483;28;20418;-68
2020/12/19 08:30:29;;;;;;;4.45;2.60;;;;;;;-4.25;95.84;100492.81;4974813;28;20054;-66
2020/12/19 08:33:18;;;;;;;7.88;3.80;;;;;;;-4.22;96.47;100505.59;4975074;28;20078;-68
2020/12/19 08:36:13;;;;;;;5.88;3.20;;;;;;;-4.18;96.88;100513.22;4973547;28;20105;-68
2020/12/19 08:39:12;;;;;;;5.60;2.83;;;;;;;-4.18;96.45;100513.22;4974005;28;20062;-71
2020/12/19 08:42:09;;;;;;;5.47;2.92;;;;;;;-4.17;96.34;100517.44;4974168;28;20077;-68
2020/12/19 08:45:14;;;;;;;5.82;3.30;;;;;;;-4.15;96.23;100517.44;4973835;28;20055;-66
2020/12/19 08:48:04;;;;;;;6.90;3.00;;;;;;;-4.14;96.41;100514.00;4974001;28;20402;-67
2020/12/19 08:50:52;;;;;;;5.82;2.42;;;;;;;-4.11;96.68;100521.66;4973941;28;20043;-68
2020/12/19 08:53:40;;;;;;;7.35;3.20;;;;;;;-4.12;95.92;100513.16;4973915;28;20438;-68
2020/12/19 08:56:26;;;;;;;6.97;3.50;;;;;;;-4.08;95.77;100521.66;4974352;28;20050;-67
2020/12/19 08:59:23;;;;;;;6.15;2.50;;;;;;;-4.11;96.15;100514.00;4974013;28;21425;-67
2020/12/19 09:02:13;;;;;;;5.35;3.22;;;;;;;-4.05;95.68;100510.53;4972968;28;20039;-67
2020/12/19 09:04:59;;;;;;;5.25;3.10;;;;;;;-4.06;95.67;100504.59;4973874;28;20051;-67
2020/12/19 09:07:55;;;;;;;6.47;3.30;;;;;;;-4.02;95.91;100508.81;4974077;28;20418;-66
2020/12/19 09:10:42;;;;;;;6.72;2.95;;;;;;;-4.05;96.32;100506.28;4973698;28;20063;-70
2020/12/19 09:13:29;;;;;;;6.05;2.53;;;;;;;-3.99;95.95;100503.66;4973707;28;20043;-67
2020/12/19 09:16:16;;;;;;;6.10;2.65;;;;;;;-3.99;96.26;100507.94;4973030;28;20050;-67
2020/12/19 09:19:12;;;;;;;4.95;2.55;;;;;;;-3.90;96.10;100507.84;4972949;28;20050;-68
2020/12/19 09:22:01;;;;;;;5.38;3.05;;;;;;;-3.89;96.25;100514.69;4973503;28;20348;-68
2020/12/19 09:24:49;;;;;;;6.15;3.13;;;;;;;-3.88;95.48;100514.66;4972309;28;20642;-70
2020/12/19 09:27:36;;;;;;;5.68;2.85;;;;;;;-3.86;95.91;100514.63;4972754;28;20059;-67
2020/12/19 09:30:23;;;;;;;6.38;3.38;;;;;;;-3.82;96.00;100511.19;4973095;28;20062;-67
2020/12/19 09:33:10;;;;;;;6.18;3.20;;;;;;;-3.78;95.76;100505.19;4973550;28;20137;-67
2020/12/19 09:35:57;;;;;;;5.82;3.05;;;;;;;-3.79;96.03;100506.06;4972325;28;20046;-68
2020/12/19 09:38:44;;;;;;;4.63;2.53;;;;;;;-3.73;95.27;100505.16;4973270;28;20047;-68
2020/12/19 09:41:32;;;;;;;6.68;2.45;;;;;;;-3.71;95.03;100494.03;4973887;28;20039;-69
2020/12/19 09:44:19;;;;;;;4.50;2.50;;;;;;;-3.70;95.42;100495.75;4972149;28;20561;-68
2020/12/19 09:47:05;;;;;;;4.43;2.40;;;;;;;-3.70;95.91;100500.88;4972873;28;20051;-68
2020/12/19 09:49:52;;;;;;;4.65;2.45;;;;;;;-3.69;95.09;100500.00;4972799;28;20402;-69
2020/12/19 09:52:39;;;;;;;4.55;2.30;;;;;;;-3.63;95.88;100512.72;4972448;28;20050;-67
2020/12/19 09:55:31;;;;;;;5.53;2.47;;;;;;;-3.59;95.98;100505.03;4972197;28;20051;-70
2020/12/19 09:58:18;;;;;;;4.38;2.42;;;;;;;-3.55;95.61;100504.97;4971942;28;20062;-67
2020/12/19 10:01:06;;;;;;;4.28;2.25;;;;;;;-3.52;95.33;100502.38;4972374;28;20142;-66
2020/12/19 10:03:53;;;;;;;4.50;2.70;;;;;;;-3.48;95.62;100508.31;4972635;28;20043;-69
2020/12/19 10:06:40;;;;;;;5.72;2.40;;;;;;;-3.44;95.65;100509.97;4972280;28;20047;-69
2020/12/19 10:09:26;;;;;;;5.55;2.60;;;;;;;-3.41;95.32;100512.50;4972950;28;20051;-69
2020/12/19 10:12:13;;;;;;;4.70;2.70;;;;;;;-3.39;95.59;100510.75;4973156;28;20049;-69
2020/12/19 10:15:00;;;;;;;4.80;2.35;;;;;;;-3.41;94.30;100504.84;4971882;28;20046;-69
2020/12/19 10:17:47;;;;;;;4.57;2.28;;;;;;;-3.34;94.26;100514.13;4972637;28;20055;-68
2020/12/19 10:20:34;;;;;;;4.65;2.45;;;;;;;-3.30;95.18;100527.72;4971533;28;20509;-67
2020/12/19 10:23:21;;;;;;;4.35;2.25;;;;;;;-3.30;94.73;100527.72;4973328;28;20055;-69
2020/12/19 10:26:10;;;;;;;6.07;2.78;;;;;;;-3.28;94.42;100534.50;4971782;28;20061;-69
2020/12/19 10:28:58;;;;;;;6.65;3.83;;;;;;;-3.28;94.73;100526.81;4972052;28;20050;-66
2020/12/19 10:31:45;;;;;;;5.47;3.22;;;;;;;-3.28;95.09;100520.88;4971433;28;20062;-67
2020/12/19 10:34:32;;;;;;;5.18;2.63;;;;;;;-3.26;95.54;100531.94;4969882;28;20104;-67
2020/12/19 10:37:19;;;;;;;3.85;2.10;;;;;;;-3.24;95.68;100525.09;4972570;28;20054;-70
2020/12/19 10:40:06;;;;;;;5.20;2.53;;;;;;;-3.27;95.53;100515.75;4972526;28;20043;-66
2020/12/19 10:42:53;;;;;;;6.90;3.22;;;;;;;-3.28;95.32;100514.03;4972772;28;20050;-70
2020/12/19 10:45:39;;;;;;;5.97;3.10;;;;;;;-3.30;95.50;100514.94;4971080;28;20050;-68
2020/12/19 10:48:26;;;;;;;6.22;3.80;;;;;;;-3.27;95.63;100509.81;4972346;28;20051;-69
2020/12/19 10:51:13;;;;;;;5.93;2.75;;;;;;;-3.29;95.56;100503.84;4971055;28;20125;-68
2020/12/19 10:54:00;;;;;;;6.05;3.78;;;;;;;-3.31;95.79;100498.75;4972347;28;20050;-67
2020/12/19 10:56:46;;;;;;;6.63;3.20;;;;;;;-3.31;94.87;100503.88;4973194;28;20058;-70
2020/12/19 10:59:33;;;;;;;5.95;3.45;;;;;;;-3.30;95.35;100499.59;4974912;28;20397;-69
2020/12/19 11:02:20;;;;;;;5.53;3.20;;;;;;;-3.27;94.83;100495.31;4978226;28;20093;-68
2020/12/19 11:05:06;;;;;;;6.78;3.22;;;;;;;-3.26;95.21;100501.25;4962731;28;20046;-69
2020/12/19 11:07:52;;;;;;;6.18;3.08;;;;;;;-3.26;95.29;100496.13;4978418;28;20078;-67
2020/12/19 11:10:42;;;;;;;5.55;2.83;;;;;;;-3.30;95.19;100484.25;4963006;28;20487;-66
2020/12/19 11:13:29;;;;;;;5.20;2.95;;;;;;;-3.32;95.12;100493.63;4978273;28;20118;-70
2020/12/19 11:16:26;;;;;;;5.78;3.22;;;;;;;-3.31;95.12;100495.34;4978006;28;20094;-68
2020/12/19 11:19:12;;;;;;;5.50;3.10;;;;;;;-3.30;95.41;100479.13;4971308;28;20055;-66
2020/12/19 11:21:58;;;;;;;6.15;3.38;;;;;;;-3.29;95.74;100474.00;4958624;29;20059;-68
2020/12/19 11:24:45;;;;;;;5.55;3.00;;;;;;;-3.31;95.89;100468.06;4958244;28;20387;-67
2020/12/19 11:27:32;;;;;;;5.60;2.80;;;;;;;-3.28;95.22;100469.72;4958559;28;20062;-70
2020/12/19 11:30:19;;;;;;;5.10;2.92;;;;;;;-3.29;96.09;100468.88;4958256;28;20120;-68
2020/12/19 11:33:05;;;;;;;6.80;3.60;;;;;;;-3.28;96.16;100465.44;4958685;28;20106;-67
2020/12/19 11:35:51;;;;;;;4.50;2.33;;;;;;;-3.28;96.33;100479.94;4958488;28;20051;-70
2020/12/19 11:38:38;;;;;;;5.25;2.75;;;;;;;-3.22;95.21;100472.22;4958751;28;20688;-69
2020/12/19 11:41:25;;;;;;;5.30;2.88;;;;;;;-3.26;96.27;100468.84;4958737;28;20078;-70
2020/12/19 11:44:12;;;;;;;5.88;3.10;;;;;;;-3.27;95.33;100466.31;4958717;28;20055;-69
2020/12/19 11:46:58;;;;;;;6.22;3.40;;;;;;;-3.23;96.11;100470.50;4957996;28;20177;-68
2020/12/19 11:49:49;;;;;;;7.28;3.00;;;;;;;-3.25;95.66;100462.88;4944904;29;20058;-67
2020/12/19 11:52:36;;;;;;;7.32;3.83;;;;;;;-3.33;95.51;100467.22;4958246;28;20047;-69
2020/12/19 11:55:22;;;;;;;6.22;3.05;;;;;;;-3.32;95.96;100470.63;4958082;28;20043;-68
2020/12/19 11:58:08;;;;;;;5.50;2.85;;;;;;;-3.35;95.82;100468.97;4943319;29;20113;-70
2020/12/19 12:00:55;;;;;;;4.85;2.70;;;;;;;-3.31;95.46;100482.56;4958153;28;20106;-70
2020/12/19 12:03:41;;;;;;;6.53;2.72;;;;;;;-3.35;95.37;100471.53;4958315;28;20047;-66
2020/12/19 12:06:30;;;;;;;5.22;2.80;;;;;;;-3.32;96.33;100478.28;4958319;28;20102;-69
2020/12/19 12:09:16;;;;;;;4.93;2.42;;;;;;;-3.34;95.62;100473.22;4957084;28;20102;-70
2020/12/19 12:12:11;;;;;;;5.10;3.08;;;;;;;-3.35;95.98;100481.75;4941998;29;20059;-68
2020/12/19 12:14:57;;;;;;;5.13;2.70;;;;;;;-3.32;95.83;100478.28;4955137;29;20039;-68
2020/12/19 12:17:43;;;;;;;5.72;2.53;;;;;;;-3.34;96.26;100491.09;4955208;28;20106;-67
2020/12/19 12:20:30;;;;;;;4.90;2.55;;;;;;;-3.35;95.68;100486.84;4954929;28;20047;-68
2020/12/19 12:23:16;;;;;;;6.28;2.70;;;;;;;-3.34;95.88;100488.53;4955206;29;20394;-69
2020/12/19 12:26:03;;;;;;;6.43;3.25;;;;;;;-3.32;95.86;100474.06;4955052;29;20040;-69
2020/12/19 12:28:49;;;;;;;6.07;3.20;;;;;;;-3.33;96.18;100480.00;4957355;28;20110;-68
2020/12/19 12:31:36;;;;;;;5.43;2.88;;;;;;;-3.33;95.83;100463.81;4939034;29;20565;-66
2020/12/19 12:34:22;;;;;;;5.18;2.55;;;;;;;-3.32;96.20;100468.06;4955526;29;20059;-69
2020/12/19 12:37:12;;;;;;;6.47;2.75;;;;;;;-3.33;95.55;100469.78;4954876;29;20079;-69
2020/12/19 12:39:59;;;;;;;4.88;2.58;;;;;;;-3.32;95.68;100471.50;4954942;28;20419;-68
2020/12/19 12:42:45;;;;;;;4.55;2.30;;;;;;;-3.32;95.80;100466.38;4954796;29;20075;-69
2020/12/19 12:45:32;;;;;;;4.20;2.33;;;;;;;-3.29;96.38;100468.03;4954307;29;20082;-66
2020/12/19 12:48:18;;;;;;;8.23;3.42;;;;;;;-3.26;95.61;100461.19;4954795;29;20139;-69
2020/12/19 12:51:12;;;;;;;4.63;2.72;;;;;;;-3.26;96.50;100461.19;4954718;29;20051;-68
2020/12/19 12:53:58;;;;;;;4.85;2.92;;;;;;;-3.23;95.98;100470.50;4956360;28;20051;-70
2020/12/19 12:56:45;;;;;;;5.07;2.70;;;;;;;-3.23;96.18;100471.38;4953841;28;20110;-69
2020/12/19 12:59:32;;;;;;;5.65;2.50;;;;;;;-3.21;95.86;100474.75;4951703;28;20256;-69
2020/12/19 13:02:18;;;;;;;5.03;2.58;;;;;;;-3.19;95.85;100474.72;4951764;28;20062;-69
2020/12/19 13:05:04;;;;;;;6.78;3.40;;;;;;;-3.18;96.37;100477.28;4953562;29;20585;-69